Rough Point — WTQ5814 — position and weather

sailwx.info

Track history (hours):
 
Tides and Currents Weather Stations Pressure Air Temp Water Temp Dewpoint Dewpoint Depression Visibility Wind Speed Wind Dir Waves Ship Positions

Rough Point

Last reported at 2017-Nov-20 00:29 UTC. Time now 2017-Nov-22 09:25 UTC.
Position N 34°43' W 076°41'.

Type: Ship. MMSI: 367614610.

Date/timePositionNaut miles runAvg speedWind from/ knotsBaromVisibWave heightAir tempDewpointWater temp
2017-Nov-20 00:29N 34°43' W 076°41'0 0.0
2017-Nov-19 23:59N 34°43' W 076°41'0 0.0
2017-Nov-19 23:29N 34°43' W 076°41'0 0.0
2017-Nov-19 23:00N 34°43' W 076°41'4 8.2
2017-Nov-19 22:29N 34°39' W 076°40'2 4.7
2017-Nov-19 22:00N 34°41' W 076°40'2 4.3
2017-Nov-19 21:28N 34°43' W 076°41'0 0.0
2017-Nov-19 20:58N 34°43' W 076°41'0 0.0
2017-Nov-19 20:28N 34°43' W 076°41'0 0.0
2017-Nov-19 19:58N 34°43' W 076°41'0 0.0
2017-Nov-19 19:28N 34°43' W 076°41'0 0.0
2017-Nov-19 18:58N 34°43' W 076°41'0 0.0
2017-Nov-19 18:28N 34°43' W 076°41'0 0.0
2017-Nov-19 17:58N 34°43' W 076°41'0 0.0
2017-Nov-19 17:28N 34°43' W 076°41'0 0.0
2017-Nov-19 16:58N 34°43' W 076°41'0 0.0
2017-Nov-19 16:28N 34°43' W 076°41'0 0.0
2017-Nov-19 15:58N 34°43' W 076°41'2 4.1
2017-Nov-19 15:30N 34°41' W 076°40'2 3.0
2017-Nov-19 14:43N 34°39' W 076°40'211.5
2017-Nov-19 14:30N 34°42' W 076°40'2 3.5
2017-Nov-19 13:58N 34°43' W 076°41'0 0.0
2017-Nov-19 13:28N 34°43' W 076°41'0 0.0
2017-Nov-19 12:58N 34°43' W 076°41'0 0.0
2017-Nov-19 12:28N 34°43' W 076°41'0 0.0
2017-Nov-19 11:58N 34°43' W 076°41'0 0.0
2017-Nov-19 11:28N 34°43' W 076°41'0 0.0
2017-Nov-19 10:58N 34°43' W 076°41'0 0.0
2017-Nov-19 10:28N 34°43' W 076°41'0 0.0
2017-Nov-19 09:58N 34°43' W 076°41'0 0.0
2017-Nov-19 09:28N 34°43' W 076°41'0 0.0
2017-Nov-19 08:58N 34°43' W 076°41'0 0.0
2017-Nov-19 08:29N 34°43' W 076°41'0 0.0
2017-Nov-19 07:58N 34°43' W 076°41'0 0.0
2017-Nov-19 07:28N 34°43' W 076°41'0 0.0
2017-Nov-19 06:58N 34°43' W 076°41'0 0.0
2017-Nov-19 06:28N 34°43' W 076°41'0 0.0
2017-Nov-19 05:58N 34°43' W 076°41'0 0.0
2017-Nov-19 05:28N 34°43' W 076°41'0 0.0
2017-Nov-19 04:58N 34°43' W 076°41'0 0.0
2017-Nov-19 04:28N 34°43' W 076°41'0 0.0
2017-Nov-19 03:58N 34°43' W 076°41'0 0.0
2017-Nov-19 03:29N 34°43' W 076°41'0 0.0
2017-Nov-19 02:58N 34°43' W 076°41'0 0.0
2017-Nov-19 02:28N 34°43' W 076°41'0 0.0
2017-Nov-19 01:58N 34°43' W 076°41'0 0.0
2017-Nov-19 01:28N 34°43' W 076°41'0 0.0
2017-Nov-19 00:58N 34°43' W 076°41'0 0.0
2017-Nov-19 00:28N 34°43' W 076°41'0 0.0
2017-Nov-18 23:58N 34°43' W 076°41'0 0.0
2017-Nov-18 23:29N 34°43' W 076°41'0 0.0
2017-Nov-18 22:58N 34°43' W 076°41'0 0.0
2017-Nov-18 22:28N 34°43' W 076°41'0 0.0
2017-Nov-18 21:58N 34°43' W 076°41'0 0.0
2017-Nov-18 21:28N 34°43' W 076°41'0 0.0
2017-Nov-18 20:58N 34°43' W 076°41'0 0.0
2017-Nov-18 20:28N 34°43' W 076°41'0 0.0
2017-Nov-18 19:58N 34°43' W 076°41'0 0.0
2017-Nov-18 19:28N 34°43' W 076°41'0 0.0
2017-Nov-18 18:58N 34°43' W 076°41'0 0.0
2017-Nov-18 18:28N 34°43' W 076°41'0 0.0
2017-Nov-18 17:58N 34°43' W 076°41'0 0.0
2017-Nov-18 17:28N 34°43' W 076°41'0 0.0
2017-Nov-18 16:58N 34°43' W 076°41'0 0.0
2017-Nov-18 16:28N 34°43' W 076°41'0 0.0
2017-Nov-18 15:58N 34°43' W 076°41'3 7.1
2017-Nov-18 15:30N 34°40' W 076°40'3 6.3
2017-Nov-18 14:59N 34°43' W 076°42'0 0.4
2017-Nov-18 14:28N 34°43' W 076°41'0 0.0
2017-Nov-18 13:58N 34°43' W 076°41'0 0.0
2017-Nov-18 13:28N 34°43' W 076°41'0 0.0
2017-Nov-18 12:58N 34°43' W 076°41'0 0.0
2017-Nov-18 12:28N 34°43' W 076°41'0 0.0
2017-Nov-18 11:58N 34°43' W 076°41'0 0.0
2017-Nov-18 11:28N 34°43' W 076°41'0 0.0
2017-Nov-18 10:58N 34°43' W 076°41'0 0.0
2017-Nov-18 10:28N 34°43' W 076°41'0 0.0
2017-Nov-18 09:58N 34°43' W 076°41'0 0.0
2017-Nov-18 09:22N 34°43' W 076°41'0 0.0
2017-Nov-18 08:58N 34°43' W 076°41'0 0.0
2017-Nov-18 08:28N 34°43' W 076°41'0 0.0
2017-Nov-18 07:58N 34°43' W 076°41'0 0.0
2017-Nov-18 07:28N 34°43' W 076°41'0 0.0
2017-Nov-18 06:58N 34°43' W 076°41'0 0.0
2017-Nov-18 06:28N 34°43' W 076°41'0 0.0
2017-Nov-18 05:58N 34°43' W 076°41'0 0.0
2017-Nov-18 05:28N 34°43' W 076°41'0 0.0
2017-Nov-18 04:58N 34°43' W 076°41'0 0.0
2017-Nov-18 04:28N 34°43' W 076°41'0 0.0
2017-Nov-18 03:58N 34°43' W 076°41'0 0.0
2017-Nov-18 03:28N 34°43' W 076°41'0 0.0
2017-Nov-18 02:58N 34°43' W 076°41'0 0.0
2017-Nov-18 02:28N 34°43' W 076°41'0 0.0
2017-Nov-18 01:58N 34°43' W 076°41'0 0.0
2017-Nov-18 01:28N 34°43' W 076°41'0 0.0
2017-Nov-18 00:58N 34°43' W 076°41'0 0.0
2017-Nov-18 00:28N 34°43' W 076°41'0 0.0
2017-Nov-17 23:58N 34°43' W 076°41'0 0.0
2017-Nov-17 23:28N 34°43' W 076°41'0 0.1
2017-Nov-17 23:00N 34°43' W 076°41'611.9
2017-Nov-17 22:30N 34°37' W 076°43'4 7.7
2017-Nov-17 22:00N 34°40' W 076°40'3 5.3
2017-Nov-17 21:28N 34°43' W 076°41'0 0.0
2017-Nov-17 21:00N 34°43' W 076°41'0 0.0
2017-Nov-17 20:30N 34°43' W 076°41'0 0.0
2017-Nov-17 20:00N 34°43' W 076°41'0 0.0
2017-Nov-17 19:27N 34°43' W 076°41'0 0.0
2017-Nov-17 19:00N 34°43' W 076°41'0 0.0
2017-Nov-17 18:30N 34°43' W 076°41'0 0.0
2017-Nov-17 18:00N 34°43' W 076°41'0 0.0
2017-Nov-17 17:30N 34°43' W 076°41'0 0.0
2017-Nov-17 17:00N 34°43' W 076°41'0 0.0
2017-Nov-17 16:30N 34°43' W 076°41'0 0.0
2017-Nov-17 16:00N 34°43' W 076°41'0 0.0
2017-Nov-17 15:30N 34°43' W 076°41'0 0.0
2017-Nov-17 15:00N 34°43' W 076°41'0 0.0
2017-Nov-17 14:30N 34°43' W 076°41'0 0.5
2017-Nov-17 14:00N 34°43' W 076°42'0 0.1
2017-Nov-17 13:30N 34°43' W 076°42'612.6
2017-Nov-17 13:00N 34°37' W 076°40'4 8.7
2017-Nov-17 12:30N 34°42' W 076°40'2 3.4
2017-Nov-17 11:58N 34°43' W 076°41'0 0.0
2017-Nov-17 11:28N 34°43' W 076°41'0 0.0
2017-Nov-17 10:58N 34°43' W 076°41'0 0.0
2017-Nov-17 10:28N 34°43' W 076°41'0 0.0
2017-Nov-17 09:58N 34°43' W 076°41'0 0.0
2017-Nov-17 09:28N 34°43' W 076°41'0 0.0
2017-Nov-17 08:58N 34°43' W 076°41'0 0.0
2017-Nov-17 08:28N 34°43' W 076°41'0 0.0
2017-Nov-17 07:58N 34°43' W 076°41'0 0.0
2017-Nov-17 07:28N 34°43' W 076°41'0 0.0
2017-Nov-17 06:58N 34°43' W 076°41'0 0.0
2017-Nov-17 06:28N 34°43' W 076°41'0 0.0
2017-Nov-17 05:58N 34°43' W 076°41'0 0.0
2017-Nov-17 05:28N 34°43' W 076°41'0 0.0
2017-Nov-17 04:58N 34°43' W 076°41'0 0.0
2017-Nov-17 04:28N 34°43' W 076°41'0 0.0
2017-Nov-17 03:58N 34°43' W 076°41'0 0.0
2017-Nov-17 03:28N 34°43' W 076°41'0 0.0
2017-Nov-17 02:58N 34°43' W 076°41'0 0.0
2017-Nov-17 02:28N 34°43' W 076°41'0 0.0
2017-Nov-17 01:58N 34°43' W 076°41'0 0.0
2017-Nov-17 01:28N 34°43' W 076°41'0 0.0
2017-Nov-17 00:58N 34°43' W 076°41'0 0.0
2017-Nov-17 00:28N 34°43' W 076°41'0 0.0
2017-Nov-16 23:55N 34°43' W 076°41'0 0.0
2017-Nov-16 23:28N 34°43' W 076°41'0 0.0
2017-Nov-16 22:58N 34°43' W 076°41'0 0.0
2017-Nov-16 22:28N 34°43' W 076°41'0 0.0
2017-Nov-16 21:58N 34°43' W 076°41'0 0.0
2017-Nov-16 21:28N 34°43' W 076°41'0 0.0
2017-Nov-16 20:58N 34°43' W 076°41'0 0.0
2017-Nov-16 20:28N 34°43' W 076°41'0 0.0
2017-Nov-16 19:58N 34°43' W 076°41'0 0.0
2017-Nov-16 19:28N 34°43' W 076°41'0 0.0
2017-Nov-16 18:58N 34°43' W 076°41'0 0.0
2017-Nov-16 18:28N 34°43' W 076°41'0 0.0
2017-Nov-16 17:58N 34°43' W 076°41'0 0.0
2017-Nov-16 17:28N 34°43' W 076°41'0 0.0
2017-Nov-16 16:58N 34°43' W 076°41'0 0.0
2017-Nov-16 16:28N 34°43' W 076°41'0 0.0
2017-Nov-16 15:58N 34°43' W 076°41'0 0.0
2017-Nov-16 15:28N 34°43' W 076°41'0 0.0
2017-Nov-16 14:58N 34°43' W 076°41'0 0.0
2017-Nov-16 14:28N 34°43' W 076°41'0 0.0
2017-Nov-16 13:58N 34°43' W 076°41'0 0.0
2017-Nov-16 13:28N 34°43' W 076°41'0 0.0
2017-Nov-16 12:58N 34°43' W 076°41'0 0.0
2017-Nov-16 12:28N 34°43' W 076°41'0 0.0
2017-Nov-16 11:58N 34°43' W 076°41'0 0.0
2017-Nov-16 11:28N 34°43' W 076°41'0 0.0
2017-Nov-16 10:58N 34°43' W 076°41'0 0.0
2017-Nov-16 10:28N 34°43' W 076°41'0 0.0
2017-Nov-16 09:58N 34°43' W 076°41'0 0.0
2017-Nov-16 09:28N 34°43' W 076°41'0 0.0
2017-Nov-16 08:58N 34°43' W 076°41'0 0.0
2017-Nov-16 08:28N 34°43' W 076°41'0 0.0
2017-Nov-16 07:58N 34°43' W 076°41'0 0.0
2017-Nov-16 07:28N 34°43' W 076°41'0 0.0
2017-Nov-16 06:58N 34°43' W 076°41'0 0.0
2017-Nov-16 06:28N 34°43' W 076°41'0 0.0
2017-Nov-16 05:58N 34°43' W 076°41'0 0.0
2017-Nov-16 05:28N 34°43' W 076°41'0 0.0
2017-Nov-16 04:58N 34°43' W 076°41'0 0.0
2017-Nov-16 04:28N 34°43' W 076°41'0 0.0
2017-Nov-16 03:58N 34°43' W 076°41'0 0.0
2017-Nov-16 03:28N 34°43' W 076°41'0 0.0
2017-Nov-16 02:58N 34°43' W 076°41'0 0.0
2017-Nov-16 02:28N 34°43' W 076°41'0 0.0
2017-Nov-16 01:58N 34°43' W 076°41'0 0.0
2017-Nov-16 01:28N 34°43' W 076°41'0 0.0
2017-Nov-16 00:58N 34°43' W 076°41'0 0.0
2017-Nov-16 00:28N 34°43' W 076°41'0 0.0
2017-Nov-15 23:58N 34°43' W 076°41'0 0.0
2017-Nov-15 23:28N 34°43' W 076°41'0 0.0
2017-Nov-15 22:58N 34°43' W 076°41'0 0.0
2017-Nov-15 22:28N 34°43' W 076°41'0 0.0
2017-Nov-15 21:58N 34°43' W 076°41'0 0.0
2017-Nov-15 21:28N 34°43' W 076°41'0 0.0
2017-Nov-15 20:58N 34°43' W 076°41'0 0.0
2017-Nov-15 20:28N 34°43' W 076°41'0 0.0
2017-Nov-15 19:58N 34°43' W 076°41'0 0.0
2017-Nov-15 19:28N 34°43' W 076°41'0 0.0
2017-Nov-15 18:58N 34°43' W 076°41'0 0.0
2017-Nov-15 18:28N 34°43' W 076°41'2 4.8
2017-Nov-15 18:00N 34°41' W 076°40'1 1.8
2017-Nov-15 17:30N 34°42' W 076°41'1 2.7
2017-Nov-15 17:00N 34°43' W 076°41'0 0.0
2017-Nov-15 16:30N 34°43' W 076°41'0 0.0
2017-Nov-15 16:00N 34°43' W 076°41'0 0.0
2017-Nov-15 15:30N 34°43' W 076°41'0 0.0
2017-Nov-15 15:00N 34°43' W 076°41'0 0.0
2017-Nov-15 14:30N 34°43' W 076°41'0 0.0
2017-Nov-15 14:00N 34°43' W 076°41'2 4.2
2017-Nov-15 13:30N 34°41' W 076°40'4 7.2
2017-Nov-15 13:00N 34°38' W 076°40'2 4.5
2017-Nov-15 12:30N 34°40' W 076°40'1 2.1
2017-Nov-15 11:58N 34°39' W 076°40'5 9.7
2017-Nov-15 11:30N 34°43' W 076°41'0 0.0
2017-Nov-15 11:00N 34°43' W 076°41'0 0.0
2017-Nov-15 10:30N 34°43' W 076°41'0 0.0
2017-Nov-15 10:00N 34°43' W 076°41'0 0.0
2017-Nov-15 09:30N 34°43' W 076°41'0 0.0
2017-Nov-15 09:00N 34°43' W 076°41'0 0.0
2017-Nov-15 08:30N 34°43' W 076°41'0 0.0
2017-Nov-15 08:00N 34°43' W 076°41'0 0.0
2017-Nov-15 07:30N 34°43' W 076°41'0 0.0
2017-Nov-15 07:00N 34°43' W 076°41'0 0.0
2017-Nov-15 06:30N 34°43' W 076°41'0 0.0
2017-Nov-15 06:00N 34°43' W 076°41'0 0.0
2017-Nov-15 05:30N 34°43' W 076°41'0 0.0
2017-Nov-15 05:00N 34°43' W 076°41'0 0.0
2017-Nov-15 04:30N 34°43' W 076°41'0 0.0
2017-Nov-15 04:00N 34°43' W 076°41'0 0.0
2017-Nov-15 03:30N 34°43' W 076°41'0 0.0
2017-Nov-15 03:00N 34°43' W 076°41'0 0.0
2017-Nov-15 02:30N 34°43' W 076°41'0 0.9
2017-Nov-15 02:00N 34°43' W 076°41'2 4.8
2017-Nov-15 01:30N 34°40' W 076°40'3 5.8
2017-Nov-15 01:00N 34°43' W 076°41'0 0.0
2017-Nov-15 00:30N 34°43' W 076°41'0 0.0
2017-Nov-15 00:00N 34°43' W 076°41'0 0.0
2017-Nov-14 23:30N 34°43' W 076°41'0 0.0
2017-Nov-14 22:57N 34°43' W 076°41'0 0.0
2017-Nov-14 22:30N 34°43' W 076°41'0 0.0
2017-Nov-14 22:00N 34°43' W 076°41'0 0.0
2017-Nov-14 21:30N 34°43' W 076°41'0 0.0
2017-Nov-14 21:00N 34°43' W 076°41'0 0.0
2017-Nov-14 20:30N 34°43' W 076°41'0 0.0
2017-Nov-14 20:00N 34°43' W 076°41'0 0.0
2017-Nov-14 19:30N 34°43' W 076°41'0 0.0
2017-Nov-14 19:00N 34°43' W 076°41'0 0.0
2017-Nov-14 18:30N 34°43' W 076°41'0 0.0
2017-Nov-14 18:00N 34°43' W 076°41'0 0.0
2017-Nov-14 17:30N 34°43' W 076°41'0 0.0
2017-Nov-14 17:00N 34°43' W 076°41'0 0.0
2017-Nov-14 16:30N 34°43' W 076°41'0 0.0
2017-Nov-14 16:00N 34°43' W 076°41'0 0.0
2017-Nov-14 15:30N 34°43' W 076°41'0 0.0
2017-Nov-14 15:00N 34°43' W 076°41'4 7.5
2017-Nov-14 14:30N 34°40' W 076°40'2 3.4
2017-Nov-14 13:48N 34°37' W 076°41'516.9
2017-Nov-14 13:30N 34°42' W 076°41'4 8.1
2017-Nov-14 13:00N 34°38' W 076°40'5 9.8
2017-Nov-14 12:30N 34°43' W 076°42'1 1.0
2017-Nov-14 11:59N 34°43' W 076°41'0 0.0
2017-Nov-14 11:29N 34°43' W 076°41'0 0.0
2017-Nov-14 10:59N 34°43' W 076°41'0 0.0
2017-Nov-14 10:29N 34°43' W 076°41'0 0.0
2017-Nov-14 09:59N 34°43' W 076°41'0 0.0
2017-Nov-14 09:29N 34°43' W 076°41'0 0.0
2017-Nov-14 08:59N 34°43' W 076°41'0 0.0
2017-Nov-14 08:29N 34°43' W 076°41'0 0.0
2017-Nov-14 07:59N 34°43' W 076°41'0 0.0
2017-Nov-14 07:29N 34°43' W 076°41'0 0.0
2017-Nov-14 06:59N 34°43' W 076°41'0 0.0
2017-Nov-14 06:29N 34°43' W 076°41'0 0.0
2017-Nov-14 05:59N 34°43' W 076°41'0 0.0
2017-Nov-14 05:29N 34°43' W 076°41'0 0.0
2017-Nov-14 04:59N 34°43' W 076°41'0 0.0
2017-Nov-14 04:29N 34°43' W 076°41'0 0.0
2017-Nov-14 03:59N 34°43' W 076°41'0 0.0
2017-Nov-14 03:29N 34°43' W 076°41'0 0.0
2017-Nov-14 02:56N 34°43' W 076°41'0 0.0
2017-Nov-14 02:29N 34°43' W 076°41'0 0.0
2017-Nov-14 01:59N 34°43' W 076°41'0 0.0
2017-Nov-14 01:29N 34°43' W 076°41'0 0.0
2017-Nov-14 00:59N 34°43' W 076°41'0 0.0
2017-Nov-14 00:29N 34°43' W 076°41'0 0.0
2017-Nov-13 23:59N 34°43' W 076°41'0 0.0
2017-Nov-13 23:29N 34°43' W 076°41'0 0.0
2017-Nov-13 22:59N 34°43' W 076°41'0 0.0
2017-Nov-13 22:29N 34°43' W 076°41'0 0.0
2017-Nov-13 21:59N 34°43' W 076°41'0 0.0
2017-Nov-13 02:00N 34°43' W 076°41'0 0.0
2017-Nov-13 01:30N 34°43' W 076°41'0 0.0
2017-Nov-13 01:00N 34°43' W 076°41'0 0.0
2017-Nov-13 00:30N 34°43' W 076°41'0 0.0
2017-Nov-13 00:00N 34°43' W 076°41'0 0.0
2017-Nov-12 23:27N 34°43' W 076°41'0 0.0
2017-Nov-12 15:39N 34°43' W 076°41'0 0.0
2017-Nov-12 15:30N 34°43' W 076°41'0 0.0
2017-Nov-12 15:00N 34°43' W 076°41'0 0.0
2017-Nov-12 14:30N 34°43' W 076°41'0 0.0
2017-Nov-12 14:00N 34°43' W 076°41'0 0.0
2017-Nov-12 13:30N 34°43' W 076°41'0 0.0
2017-Nov-12 13:00N 34°43' W 076°41'0 0.0
2017-Nov-12 12:30N 34°43' W 076°41'0 0.0
2017-Nov-12 12:00N 34°43' W 076°41'0 0.0
2017-Nov-12 11:30N 34°43' W 076°41'0 0.0
2017-Nov-12 11:00N 34°43' W 076°41'0 0.0
2017-Nov-12 10:30N 34°43' W 076°41'0 0.0
2017-Nov-12 10:00N 34°43' W 076°41'0 0.0
2017-Nov-12 09:30N 34°43' W 076°41'0 0.0
2017-Nov-12 09:00N 34°43' W 076°41'0 0.0
2017-Nov-12 08:30N 34°43' W 076°41'0 0.0
2017-Nov-12 08:00N 34°43' W 076°41'0 0.0
2017-Nov-12 07:30N 34°43' W 076°41'0 0.0
2017-Nov-12 07:00N 34°43' W 076°41'0 0.0
2017-Nov-12 06:30N 34°43' W 076°41'0 0.0
2017-Nov-12 06:00N 34°43' W 076°41'0 0.0
2017-Nov-12 05:30N 34°43' W 076°41'0 0.0
2017-Nov-12 05:00N 34°43' W 076°41'0 0.0
2017-Nov-12 04:30N 34°43' W 076°41'0 0.0
2017-Nov-12 04:00N 34°43' W 076°41'0 0.0
2017-Nov-12 03:30N 34°43' W 076°41'0 0.0
2017-Nov-12 03:00N 34°43' W 076°41'0 0.0
2017-Nov-12 02:30N 34°43' W 076°41'0 0.0
2017-Nov-12 02:00N 34°43' W 076°41'0 0.0
2017-Nov-12 01:30N 34°43' W 076°41'0 0.0
2017-Nov-12 01:00N 34°43' W 076°41'0 0.0
2017-Nov-12 00:30N 34°43' W 076°41'0 0.0
2017-Nov-12 00:00N 34°43' W 076°41'0 0.0
2017-Nov-11 23:27N 34°43' W 076°41'0 0.0
2017-Nov-11 23:00N 34°43' W 076°41'0 0.0
2017-Nov-11 22:30N 34°43' W 076°41'0 0.0
2017-Nov-11 22:00N 34°43' W 076°41'0 0.0
2017-Nov-11 21:30N 34°43' W 076°41'0 0.0
2017-Nov-11 21:00N 34°43' W 076°41'0 0.0
2017-Nov-11 20:30N 34°43' W 076°41'0 0.0
2017-Nov-11 20:00N 34°43' W 076°41'0 0.0
2017-Nov-11 19:30N 34°43' W 076°41'0 0.0
2017-Nov-11 19:00N 34°43' W 076°41'0 0.0
2017-Nov-11 18:30N 34°43' W 076°41'0 0.0
2017-Nov-11 18:00N 34°43' W 076°41'0 0.0
2017-Nov-11 17:30N 34°43' W 076°41'0 0.0
2017-Nov-11 17:00N 34°43' W 076°41'0 0.0
2017-Nov-11 16:24N 34°43' W 076°41'0 0.0
2017-Nov-11 16:00N 34°43' W 076°41'0 0.0
2017-Nov-11 15:30N 34°43' W 076°41'0 0.0
2017-Nov-11 15:00N 34°43' W 076°41'0 0.0
2017-Nov-11 14:30N 34°43' W 076°41'0 0.0
2017-Nov-11 14:00N 34°43' W 076°41'0 0.0
2017-Nov-11 13:30N 34°43' W 076°41'0 0.0
2017-Nov-11 13:00N 34°43' W 076°41'0 0.0
2017-Nov-11 12:30N 34°43' W 076°41'0 0.0
2017-Nov-11 12:00N 34°43' W 076°41'0 0.0
2017-Nov-11 11:30N 34°43' W 076°41'0 0.0
2017-Nov-11 11:00N 34°43' W 076°41'0 0.0
2017-Nov-11 10:27N 34°43' W 076°41'0 0.0
2017-Nov-11 10:00N 34°43' W 076°41'0 0.0
2017-Nov-11 09:30N 34°43' W 076°41'0 0.0
2017-Nov-11 09:00N 34°43' W 076°41'0 0.0
2017-Nov-11 08:30N 34°43' W 076°41'0 0.0
2017-Nov-11 08:00N 34°43' W 076°41'0 0.0
2017-Nov-11 07:30N 34°43' W 076°41'0 0.0
2017-Nov-11 07:00N 34°43' W 076°41'0 0.0
2017-Nov-11 06:27N 34°43' W 076°41'0 0.0
2017-Nov-11 06:00N 34°43' W 076°41'0 0.0
2017-Nov-11 05:30N 34°43' W 076°41'0 0.0
2017-Nov-11 05:00N 34°43' W 076°41'0 0.0
2017-Nov-11 04:30N 34°43' W 076°41'0 0.0
2017-Nov-11 04:00N 34°43' W 076°41'0 0.0
2017-Nov-11 03:30N 34°43' W 076°41'0 0.0
2017-Nov-11 03:00N 34°43' W 076°41'0 0.0
2017-Nov-11 02:30N 34°43' W 076°41'0 0.0
2017-Nov-11 02:00N 34°43' W 076°41'0 0.0
2017-Nov-11 01:30N 34°43' W 076°41'0 0.0
2017-Nov-11 01:00N 34°43' W 076°41'0 0.0
2017-Nov-11 00:30N 34°43' W 076°41'0 0.0
2017-Nov-11 00:00N 34°43' W 076°41'0 0.0
2017-Nov-10 23:30N 34°43' W 076°41'0 0.0
2017-Nov-10 23:00N 34°43' W 076°41'2 3.8
2017-Nov-10 22:30N 34°42' W 076°40'1 1.1
2017-Nov-10 22:00N 34°42' W 076°41'1 2.5
2017-Nov-10 21:29N 34°43' W 076°41'0 0.0
2017-Nov-10 20:59N 34°43' W 076°41'0 0.0
2017-Nov-10 20:29N 34°43' W 076°41'0 0.0
2017-Nov-10 19:59N 34°43' W 076°41'0 0.0
2017-Nov-10 19:29N 34°43' W 076°41'0 0.0
2017-Nov-10 18:59N 34°43' W 076°41'0 0.0
2017-Nov-10 18:29N 34°43' W 076°41'0 0.0
2017-Nov-10 17:59N 34°43' W 076°41'0 0.0
2017-Nov-10 17:29N 34°43' W 076°41'0 0.0
2017-Nov-10 16:59N 34°43' W 076°41'0 0.0
2017-Nov-10 16:29N 34°43' W 076°41'0 0.0
2017-Nov-10 15:59N 34°43' W 076°41'0 0.0
2017-Nov-10 15:29N 34°43' W 076°41'0 0.0
2017-Nov-10 14:59N 34°43' W 076°41'0 0.0
2017-Nov-10 14:29N 34°43' W 076°41'1 2.5
2017-Nov-10 14:00N 34°42' W 076°41'0 0.7
2017-Nov-10 13:30N 34°42' W 076°40'2 3.1
2017-Nov-10 12:59N 34°43' W 076°41'0 0.0
2017-Nov-10 12:29N 34°43' W 076°41'0 0.0
2017-Nov-10 11:59N 34°43' W 076°41'0 0.0
2017-Nov-10 11:29N 34°43' W 076°41'0 0.0
2017-Nov-10 10:59N 34°43' W 076°41'0 0.0
2017-Nov-10 10:23N 34°43' W 076°41'0 0.0
2017-Nov-10 09:59N 34°43' W 076°41'0 0.0
2017-Nov-10 09:29N 34°43' W 076°41'0 0.0
2017-Nov-10 08:59N 34°43' W 076°41'0 0.0
2017-Nov-10 08:29N 34°43' W 076°41'0 0.0
2017-Nov-10 07:59N 34°43' W 076°41'0 0.0
2017-Nov-10 07:29N 34°43' W 076°41'0 0.0
2017-Nov-10 06:59N 34°43' W 076°41'0 0.0
2017-Nov-10 06:29N 34°43' W 076°41'0 0.0
2017-Nov-10 05:59N 34°43' W 076°41'0 0.0
2017-Nov-10 05:29N 34°43' W 076°41'0 0.0
2017-Nov-10 04:50N 34°43' W 076°41'0 0.0
2017-Nov-10 04:29N 34°43' W 076°41'0 0.0
2017-Nov-10 03:59N 34°43' W 076°41'0 0.0
2017-Nov-10 03:29N 34°43' W 076°41'0 0.0
2017-Nov-10 02:59N 34°43' W 076°41'0 0.0
2017-Nov-10 02:29N 34°43' W 076°41'0 0.0
2017-Nov-10 01:59N 34°43' W 076°41'0 0.0
2017-Nov-10 01:29N 34°43' W 076°41'0 0.0
2017-Nov-10 00:59N 34°43' W 076°41'  
Track history (hours):
 
Tides and Currents Weather Stations Pressure Air Temp Water Temp Dewpoint Dewpoint Depression Visibility Wind Speed Wind Dir Waves Ship Positions

Rough Point

Last reported at 2017-Nov-20 00:29 UTC. Time now 2017-Nov-22 09:25 UTC.
Position N 34°43' W 076°41'.

Type: Ship. MMSI: 367614610.

Date/timePositionNaut miles runAvg speedWind from/ knotsBaromVisibWave heightAir tempDewpointWater temp
2017-Nov-20 00:29N 34°43' W 076°41'0 0.0
2017-Nov-19 23:59N 34°43' W 076°41'0 0.0
2017-Nov-19 23:29N 34°43' W 076°41'0 0.0
2017-Nov-19 23:00N 34°43' W 076°41'4 8.2
2017-Nov-19 22:29N 34°39' W 076°40'2 4.7
2017-Nov-19 22:00N 34°41' W 076°40'2 4.3
2017-Nov-19 21:28N 34°43' W 076°41'0 0.0
2017-Nov-19 20:58N 34°43' W 076°41'0 0.0
2017-Nov-19 20:28N 34°43' W 076°41'0 0.0
2017-Nov-19 19:58N 34°43' W 076°41'0 0.0
2017-Nov-19 19:28N 34°43' W 076°41'0 0.0
2017-Nov-19 18:58N 34°43' W 076°41'0 0.0
2017-Nov-19 18:28N 34°43' W 076°41'0 0.0
2017-Nov-19 17:58N 34°43' W 076°41'0 0.0
2017-Nov-19 17:28N 34°43' W 076°41'0 0.0
2017-Nov-19 16:58N 34°43' W 076°41'0 0.0
2017-Nov-19 16:28N 34°43' W 076°41'0 0.0
2017-Nov-19 15:58N 34°43' W 076°41'2 4.1
2017-Nov-19 15:30N 34°41' W 076°40'2 3.0
2017-Nov-19 14:43N 34°39' W 076°40'211.5
2017-Nov-19 14:30N 34°42' W 076°40'2 3.5
2017-Nov-19 13:58N 34°43' W 076°41'0 0.0
2017-Nov-19 13:28N 34°43' W 076°41'0 0.0
2017-Nov-19 12:58N 34°43' W 076°41'0 0.0
2017-Nov-19 12:28N 34°43' W 076°41'0 0.0
2017-Nov-19 11:58N 34°43' W 076°41'0 0.0
2017-Nov-19 11:28N 34°43' W 076°41'0 0.0
2017-Nov-19 10:58N 34°43' W 076°41'0 0.0
2017-Nov-19 10:28N 34°43' W 076°41'0 0.0
2017-Nov-19 09:58N 34°43' W 076°41'0 0.0
2017-Nov-19 09:28N 34°43' W 076°41'0 0.0
2017-Nov-19 08:58N 34°43' W 076°41'0 0.0
2017-Nov-19 08:29N 34°43' W 076°41'0 0.0
2017-Nov-19 07:58N 34°43' W 076°41'0 0.0
2017-Nov-19 07:28N 34°43' W 076°41'0 0.0
2017-Nov-19 06:58N 34°43' W 076°41'0 0.0
2017-Nov-19 06:28N 34°43' W 076°41'0 0.0
2017-Nov-19 05:58N 34°43' W 076°41'0 0.0
2017-Nov-19 05:28N 34°43' W 076°41'0 0.0
2017-Nov-19 04:58N 34°43' W 076°41'0 0.0
2017-Nov-19 04:28N 34°43' W 076°41'0 0.0
2017-Nov-19 03:58N 34°43' W 076°41'0 0.0
2017-Nov-19 03:29N 34°43' W 076°41'0 0.0
2017-Nov-19 02:58N 34°43' W 076°41'0 0.0
2017-Nov-19 02:28N 34°43' W 076°41'0 0.0
2017-Nov-19 01:58N 34°43' W 076°41'0 0.0
2017-Nov-19 01:28N 34°43' W 076°41'0 0.0
2017-Nov-19 00:58N 34°43' W 076°41'0 0.0
2017-Nov-19 00:28N 34°43' W 076°41'0 0.0
2017-Nov-18 23:58N 34°43' W 076°41'0 0.0
2017-Nov-18 23:29N 34°43' W 076°41'0 0.0
2017-Nov-18 22:58N 34°43' W 076°41'0 0.0
2017-Nov-18 22:28N 34°43' W 076°41'0 0.0
2017-Nov-18 21:58N 34°43' W 076°41'0 0.0
2017-Nov-18 21:28N 34°43' W 076°41'0 0.0
2017-Nov-18 20:58N 34°43' W 076°41'0 0.0
2017-Nov-18 20:28N 34°43' W 076°41'0 0.0
2017-Nov-18 19:58N 34°43' W 076°41'0 0.0
2017-Nov-18 19:28N 34°43' W 076°41'0 0.0
2017-Nov-18 18:58N 34°43' W 076°41'0 0.0
2017-Nov-18 18:28N 34°43' W 076°41'0 0.0
2017-Nov-18 17:58N 34°43' W 076°41'0 0.0
2017-Nov-18 17:28N 34°43' W 076°41'0 0.0
2017-Nov-18 16:58N 34°43' W 076°41'0 0.0
2017-Nov-18 16:28N 34°43' W 076°41'0 0.0
2017-Nov-18 15:58N 34°43' W 076°41'3 7.1
2017-Nov-18 15:30N 34°40' W 076°40'3 6.3
2017-Nov-18 14:59N 34°43' W 076°42'0 0.4
2017-Nov-18 14:28N 34°43' W 076°41'0 0.0
2017-Nov-18 13:58N 34°43' W 076°41'0 0.0
2017-Nov-18 13:28N 34°43' W 076°41'0 0.0
2017-Nov-18 12:58N 34°43' W 076°41'0 0.0
2017-Nov-18 12:28N 34°43' W 076°41'0 0.0
2017-Nov-18 11:58N 34°43' W 076°41'0 0.0
2017-Nov-18 11:28N 34°43' W 076°41'0 0.0
2017-Nov-18 10:58N 34°43' W 076°41'0 0.0
2017-Nov-18 10:28N 34°43' W 076°41'0 0.0
2017-Nov-18 09:58N 34°43' W 076°41'0 0.0
2017-Nov-18 09:22N 34°43' W 076°41'0 0.0
2017-Nov-18 08:58N 34°43' W 076°41'0 0.0
2017-Nov-18 08:28N 34°43' W 076°41'0 0.0
2017-Nov-18 07:58N 34°43' W 076°41'0 0.0
2017-Nov-18 07:28N 34°43' W 076°41'0 0.0
2017-Nov-18 06:58N 34°43' W 076°41'0 0.0
2017-Nov-18 06:28N 34°43' W 076°41'0 0.0
2017-Nov-18 05:58N 34°43' W 076°41'0 0.0
2017-Nov-18 05:28N 34°43' W 076°41'0 0.0
2017-Nov-18 04:58N 34°43' W 076°41'0 0.0
2017-Nov-18 04:28N 34°43' W 076°41'0 0.0
2017-Nov-18 03:58N 34°43' W 076°41'0 0.0
2017-Nov-18 03:28N 34°43' W 076°41'0 0.0
2017-Nov-18 02:58N 34°43' W 076°41'0 0.0
2017-Nov-18 02:28N 34°43' W 076°41'0 0.0
2017-Nov-18 01:58N 34°43' W 076°41'0 0.0
2017-Nov-18 01:28N 34°43' W 076°41'0 0.0
2017-Nov-18 00:58N 34°43' W 076°41'0 0.0
2017-Nov-18 00:28N 34°43' W 076°41'0 0.0
2017-Nov-17 23:58N 34°43' W 076°41'0 0.0
2017-Nov-17 23:28N 34°43' W 076°41'0 0.1
2017-Nov-17 23:00N 34°43' W 076°41'611.9
2017-Nov-17 22:30N 34°37' W 076°43'4 7.7
2017-Nov-17 22:00N 34°40' W 076°40'3 5.3
2017-Nov-17 21:28N 34°43' W 076°41'0 0.0
2017-Nov-17 21:00N 34°43' W 076°41'0 0.0
2017-Nov-17 20:30N 34°43' W 076°41'0 0.0
2017-Nov-17 20:00N 34°43' W 076°41'0 0.0
2017-Nov-17 19:27N 34°43' W 076°41'0 0.0
2017-Nov-17 19:00N 34°43' W 076°41'0 0.0
2017-Nov-17 18:30N 34°43' W 076°41'0 0.0
2017-Nov-17 18:00N 34°43' W 076°41'0 0.0
2017-Nov-17 17:30N 34°43' W 076°41'0 0.0
2017-Nov-17 17:00N 34°43' W 076°41'0 0.0
2017-Nov-17 16:30N 34°43' W 076°41'0 0.0
2017-Nov-17 16:00N 34°43' W 076°41'0 0.0
2017-Nov-17 15:30N 34°43' W 076°41'0 0.0
2017-Nov-17 15:00N 34°43' W 076°41'0 0.0
2017-Nov-17 14:30N 34°43' W 076°41'0 0.5
2017-Nov-17 14:00N 34°43' W 076°42'0 0.1
2017-Nov-17 13:30N 34°43' W 076°42'612.6
2017-Nov-17 13:00N 34°37' W 076°40'4 8.7
2017-Nov-17 12:30N 34°42' W 076°40'2 3.4
2017-Nov-17 11:58N 34°43' W 076°41'0 0.0
2017-Nov-17 11:28N 34°43' W 076°41'0 0.0
2017-Nov-17 10:58N 34°43' W 076°41'0 0.0
2017-Nov-17 10:28N 34°43' W 076°41'0 0.0
2017-Nov-17 09:58N 34°43' W 076°41'0 0.0
2017-Nov-17 09:28N 34°43' W 076°41'0 0.0
2017-Nov-17 08:58N 34°43' W 076°41'0 0.0
2017-Nov-17 08:28N 34°43' W 076°41'0 0.0
2017-Nov-17 07:58N 34°43' W 076°41'0 0.0
2017-Nov-17 07:28N 34°43' W 076°41'0 0.0
2017-Nov-17 06:58N 34°43' W 076°41'0 0.0
2017-Nov-17 06:28N 34°43' W 076°41'0 0.0
2017-Nov-17 05:58N 34°43' W 076°41'0 0.0
2017-Nov-17 05:28N 34°43' W 076°41'0 0.0
2017-Nov-17 04:58N 34°43' W 076°41'0 0.0
2017-Nov-17 04:28N 34°43' W 076°41'0 0.0
2017-Nov-17 03:58N 34°43' W 076°41'0 0.0
2017-Nov-17 03:28N 34°43' W 076°41'0 0.0
2017-Nov-17 02:58N 34°43' W 076°41'0 0.0
2017-Nov-17 02:28N 34°43' W 076°41'0 0.0
2017-Nov-17 01:58N 34°43' W 076°41'0 0.0
2017-Nov-17 01:28N 34°43' W 076°41'0 0.0
2017-Nov-17 00:58N 34°43' W 076°41'0 0.0
2017-Nov-17 00:28N 34°43' W 076°41'0 0.0
2017-Nov-16 23:55N 34°43' W 076°41'0 0.0
2017-Nov-16 23:28N 34°43' W 076°41'0 0.0
2017-Nov-16 22:58N 34°43' W 076°41'0 0.0
2017-Nov-16 22:28N 34°43' W 076°41'0 0.0
2017-Nov-16 21:58N 34°43' W 076°41'0 0.0
2017-Nov-16 21:28N 34°43' W 076°41'0 0.0
2017-Nov-16 20:58N 34°43' W 076°41'0 0.0
2017-Nov-16 20:28N 34°43' W 076°41'0 0.0
2017-Nov-16 19:58N 34°43' W 076°41'0 0.0
2017-Nov-16 19:28N 34°43' W 076°41'0 0.0
2017-Nov-16 18:58N 34°43' W 076°41'0 0.0
2017-Nov-16 18:28N 34°43' W 076°41'0 0.0
2017-Nov-16 17:58N 34°43' W 076°41'0 0.0
2017-Nov-16 17:28N 34°43' W 076°41'0 0.0
2017-Nov-16 16:58N 34°43' W 076°41'0 0.0
2017-Nov-16 16:28N 34°43' W 076°41'0 0.0
2017-Nov-16 15:58N 34°43' W 076°41'0 0.0
2017-Nov-16 15:28N 34°43' W 076°41'0 0.0
2017-Nov-16 14:58N 34°43' W 076°41'0 0.0
2017-Nov-16 14:28N 34°43' W 076°41'0 0.0
2017-Nov-16 13:58N 34°43' W 076°41'0 0.0
2017-Nov-16 13:28N 34°43' W 076°41'0 0.0
2017-Nov-16 12:58N 34°43' W 076°41'0 0.0
2017-Nov-16 12:28N 34°43' W 076°41'0 0.0
2017-Nov-16 11:58N 34°43' W 076°41'0 0.0
2017-Nov-16 11:28N 34°43' W 076°41'0 0.0
2017-Nov-16 10:58N 34°43' W 076°41'0 0.0
2017-Nov-16 10:28N 34°43' W 076°41'0 0.0
2017-Nov-16 09:58N 34°43' W 076°41'0 0.0
2017-Nov-16 09:28N 34°43' W 076°41'0 0.0
2017-Nov-16 08:58N 34°43' W 076°41'0 0.0
2017-Nov-16 08:28N 34°43' W 076°41'0 0.0
2017-Nov-16 07:58N 34°43' W 076°41'0 0.0
2017-Nov-16 07:28N 34°43' W 076°41'0 0.0
2017-Nov-16 06:58N 34°43' W 076°41'0 0.0
2017-Nov-16 06:28N 34°43' W 076°41'0 0.0
2017-Nov-16 05:58N 34°43' W 076°41'0 0.0
2017-Nov-16 05:28N 34°43' W 076°41'0 0.0
2017-Nov-16 04:58N 34°43' W 076°41'0 0.0
2017-Nov-16 04:28N 34°43' W 076°41'0 0.0
2017-Nov-16 03:58N 34°43' W 076°41'0 0.0
2017-Nov-16 03:28N 34°43' W 076°41'0 0.0
2017-Nov-16 02:58N 34°43' W 076°41'0 0.0
2017-Nov-16 02:28N 34°43' W 076°41'0 0.0
2017-Nov-16 01:58N 34°43' W 076°41'0 0.0
2017-Nov-16 01:28N 34°43' W 076°41'0 0.0
2017-Nov-16 00:58N 34°43' W 076°41'0 0.0
2017-Nov-16 00:28N 34°43' W 076°41'0 0.0
2017-Nov-15 23:58N 34°43' W 076°41'0 0.0
2017-Nov-15 23:28N 34°43' W 076°41'0 0.0
2017-Nov-15 22:58N 34°43' W 076°41'0 0.0
2017-Nov-15 22:28N 34°43' W 076°41'0 0.0
2017-Nov-15 21:58N 34°43' W 076°41'0 0.0
2017-Nov-15 21:28N 34°43' W 076°41'0 0.0
2017-Nov-15 20:58N 34°43' W 076°41'0 0.0
2017-Nov-15 20:28N 34°43' W 076°41'0 0.0
2017-Nov-15 19:58N 34°43' W 076°41'0 0.0
2017-Nov-15 19:28N 34°43' W 076°41'0 0.0
2017-Nov-15 18:58N 34°43' W 076°41'0 0.0
2017-Nov-15 18:28N 34°43' W 076°41'2 4.8
2017-Nov-15 18:00N 34°41' W 076°40'1 1.8
2017-Nov-15 17:30N 34°42' W 076°41'1 2.7
2017-Nov-15 17:00N 34°43' W 076°41'0 0.0
2017-Nov-15 16:30N 34°43' W 076°41'0 0.0
2017-Nov-15 16:00N 34°43' W 076°41'0 0.0
2017-Nov-15 15:30N 34°43' W 076°41'0 0.0
2017-Nov-15 15:00N 34°43' W 076°41'0 0.0
2017-Nov-15 14:30N 34°43' W 076°41'0 0.0
2017-Nov-15 14:00N 34°43' W 076°41'2 4.2
2017-Nov-15 13:30N 34°41' W 076°40'4 7.2
2017-Nov-15 13:00N 34°38' W 076°40'2 4.5
2017-Nov-15 12:30N 34°40' W 076°40'1 2.1
2017-Nov-15 11:58N 34°39' W 076°40'5 9.7
2017-Nov-15 11:30N 34°43' W 076°41'0 0.0
2017-Nov-15 11:00N 34°43' W 076°41'0 0.0
2017-Nov-15 10:30N 34°43' W 076°41'0 0.0
2017-Nov-15 10:00N 34°43' W 076°41'0 0.0
2017-Nov-15 09:30N 34°43' W 076°41'0 0.0
2017-Nov-15 09:00N 34°43' W 076°41'0 0.0
2017-Nov-15 08:30N 34°43' W 076°41'0 0.0
2017-Nov-15 08:00N 34°43' W 076°41'0 0.0
2017-Nov-15 07:30N 34°43' W 076°41'0 0.0
2017-Nov-15 07:00N 34°43' W 076°41'0 0.0
2017-Nov-15 06:30N 34°43' W 076°41'0 0.0
2017-Nov-15 06:00N 34°43' W 076°41'0 0.0
2017-Nov-15 05:30N 34°43' W 076°41'0 0.0
2017-Nov-15 05:00N 34°43' W 076°41'0 0.0
2017-Nov-15 04:30N 34°43' W 076°41'0 0.0
2017-Nov-15 04:00N 34°43' W 076°41'0 0.0
2017-Nov-15 03:30N 34°43' W 076°41'0 0.0
2017-Nov-15 03:00N 34°43' W 076°41'0 0.0
2017-Nov-15 02:30N 34°43' W 076°41'0 0.9
2017-Nov-15 02:00N 34°43' W 076°41'2 4.8
2017-Nov-15 01:30N 34°40' W 076°40'3 5.8
2017-Nov-15 01:00N 34°43' W 076°41'0 0.0
2017-Nov-15 00:30N 34°43' W 076°41'0 0.0
2017-Nov-15 00:00N 34°43' W 076°41'0 0.0
2017-Nov-14 23:30N 34°43' W 076°41'0 0.0
2017-Nov-14 22:57N 34°43' W 076°41'0 0.0
2017-Nov-14 22:30N 34°43' W 076°41'0 0.0
2017-Nov-14 22:00N 34°43' W 076°41'0 0.0
2017-Nov-14 21:30N 34°43' W 076°41'0 0.0
2017-Nov-14 21:00N 34°43' W 076°41'0 0.0
2017-Nov-14 20:30N 34°43' W 076°41'0 0.0
2017-Nov-14 20:00N 34°43' W 076°41'0 0.0
2017-Nov-14 19:30N 34°43' W 076°41'0 0.0
2017-Nov-14 19:00N 34°43' W 076°41'0 0.0
2017-Nov-14 18:30N 34°43' W 076°41'0 0.0
2017-Nov-14 18:00N 34°43' W 076°41'0 0.0
2017-Nov-14 17:30N 34°43' W 076°41'0 0.0
2017-Nov-14 17:00N 34°43' W 076°41'0 0.0
2017-Nov-14 16:30N 34°43' W 076°41'0 0.0
2017-Nov-14 16:00N 34°43' W 076°41'0 0.0
2017-Nov-14 15:30N 34°43' W 076°41'0 0.0
2017-Nov-14 15:00N 34°43' W 076°41'4 7.5
2017-Nov-14 14:30N 34°40' W 076°40'2 3.4
2017-Nov-14 13:48N 34°37' W 076°41'516.9
2017-Nov-14 13:30N 34°42' W 076°41'4 8.1
2017-Nov-14 13:00N 34°38' W 076°40'5 9.8
2017-Nov-14 12:30N 34°43' W 076°42'1 1.0
2017-Nov-14 11:59N 34°43' W 076°41'0 0.0
2017-Nov-14 11:29N 34°43' W 076°41'0 0.0
2017-Nov-14 10:59N 34°43' W 076°41'0 0.0
2017-Nov-14 10:29N 34°43' W 076°41'0 0.0
2017-Nov-14 09:59N 34°43' W 076°41'0 0.0
2017-Nov-14 09:29N 34°43' W 076°41'0 0.0
2017-Nov-14 08:59N 34°43' W 076°41'0 0.0
2017-Nov-14 08:29N 34°43' W 076°41'0 0.0
2017-Nov-14 07:59N 34°43' W 076°41'0 0.0
2017-Nov-14 07:29N 34°43' W 076°41'0 0.0
2017-Nov-14 06:59N 34°43' W 076°41'0 0.0
2017-Nov-14 06:29N 34°43' W 076°41'0 0.0
2017-Nov-14 05:59N 34°43' W 076°41'0 0.0
2017-Nov-14 05:29N 34°43' W 076°41'0 0.0
2017-Nov-14 04:59N 34°43' W 076°41'0 0.0
2017-Nov-14 04:29N 34°43' W 076°41'0 0.0
2017-Nov-14 03:59N 34°43' W 076°41'0 0.0
2017-Nov-14 03:29N 34°43' W 076°41'0 0.0
2017-Nov-14 02:56N 34°43' W 076°41'0 0.0
2017-Nov-14 02:29N 34°43' W 076°41'0 0.0
2017-Nov-14 01:59N 34°43' W 076°41'0 0.0
2017-Nov-14 01:29N 34°43' W 076°41'0 0.0
2017-Nov-14 00:59N 34°43' W 076°41'0 0.0
2017-Nov-14 00:29N 34°43' W 076°41'0 0.0
2017-Nov-13 23:59N 34°43' W 076°41'0 0.0
2017-Nov-13 23:29N 34°43' W 076°41'0 0.0
2017-Nov-13 22:59N 34°43' W 076°41'0 0.0
2017-Nov-13 22:29N 34°43' W 076°41'0 0.0
2017-Nov-13 21:59N 34°43' W 076°41'0 0.0
2017-Nov-13 02:00N 34°43' W 076°41'0 0.0
2017-Nov-13 01:30N 34°43' W 076°41'0 0.0
2017-Nov-13 01:00N 34°43' W 076°41'0 0.0
2017-Nov-13 00:30N 34°43' W 076°41'0 0.0
2017-Nov-13 00:00N 34°43' W 076°41'0 0.0
2017-Nov-12 23:27N 34°43' W 076°41'0 0.0
2017-Nov-12 15:39N 34°43' W 076°41'0 0.0
2017-Nov-12 15:30N 34°43' W 076°41'0 0.0
2017-Nov-12 15:00N 34°43' W 076°41'0 0.0
2017-Nov-12 14:30N 34°43' W 076°41'0 0.0
2017-Nov-12 14:00N 34°43' W 076°41'0 0.0
2017-Nov-12 13:30N 34°43' W 076°41'0 0.0
2017-Nov-12 13:00N 34°43' W 076°41'0 0.0
2017-Nov-12 12:30N 34°43' W 076°41'0 0.0
2017-Nov-12 12:00N 34°43' W 076°41'0 0.0
2017-Nov-12 11:30N 34°43' W 076°41'0 0.0
2017-Nov-12 11:00N 34°43' W 076°41'0 0.0
2017-Nov-12 10:30N 34°43' W 076°41'0 0.0
2017-Nov-12 10:00N 34°43' W 076°41'0 0.0
2017-Nov-12 09:30N 34°43' W 076°41'0 0.0
2017-Nov-12 09:00N 34°43' W 076°41'0 0.0
2017-Nov-12 08:30N 34°43' W 076°41'0 0.0
2017-Nov-12 08:00N 34°43' W 076°41'0 0.0
2017-Nov-12 07:30N 34°43' W 076°41'0 0.0
2017-Nov-12 07:00N 34°43' W 076°41'0 0.0
2017-Nov-12 06:30N 34°43' W 076°41'0 0.0
2017-Nov-12 06:00N 34°43' W 076°41'0 0.0
2017-Nov-12 05:30N 34°43' W 076°41'0 0.0
2017-Nov-12 05:00N 34°43' W 076°41'0 0.0
2017-Nov-12 04:30N 34°43' W 076°41'0 0.0
2017-Nov-12 04:00N 34°43' W 076°41'0 0.0
2017-Nov-12 03:30N 34°43' W 076°41'0 0.0
2017-Nov-12 03:00N 34°43' W 076°41'0 0.0
2017-Nov-12 02:30N 34°43' W 076°41'0 0.0
2017-Nov-12 02:00N 34°43' W 076°41'0 0.0
2017-Nov-12 01:30N 34°43' W 076°41'0 0.0
2017-Nov-12 01:00N 34°43' W 076°41'0 0.0
2017-Nov-12 00:30N 34°43' W 076°41'0 0.0
2017-Nov-12 00:00N 34°43' W 076°41'0 0.0
2017-Nov-11 23:27N 34°43' W 076°41'0 0.0
2017-Nov-11 23:00N 34°43' W 076°41'0 0.0
2017-Nov-11 22:30N 34°43' W 076°41'0 0.0
2017-Nov-11 22:00N 34°43' W 076°41'0 0.0
2017-Nov-11 21:30N 34°43' W 076°41'0 0.0
2017-Nov-11 21:00N 34°43' W 076°41'0 0.0
2017-Nov-11 20:30N 34°43' W 076°41'0 0.0
2017-Nov-11 20:00N 34°43' W 076°41'0 0.0
2017-Nov-11 19:30N 34°43' W 076°41'0 0.0
2017-Nov-11 19:00N 34°43' W 076°41'0 0.0
2017-Nov-11 18:30N 34°43' W 076°41'0 0.0
2017-Nov-11 18:00N 34°43' W 076°41'0 0.0
2017-Nov-11 17:30N 34°43' W 076°41'0 0.0
2017-Nov-11 17:00N 34°43' W 076°41'0 0.0
2017-Nov-11 16:24N 34°43' W 076°41'0 0.0
2017-Nov-11 16:00N 34°43' W 076°41'0 0.0
2017-Nov-11 15:30N 34°43' W 076°41'0 0.0
2017-Nov-11 15:00N 34°43' W 076°41'0 0.0
2017-Nov-11 14:30N 34°43' W 076°41'0 0.0
2017-Nov-11 14:00N 34°43' W 076°41'0 0.0
2017-Nov-11 13:30N 34°43' W 076°41'0 0.0
2017-Nov-11 13:00N 34°43' W 076°41'0 0.0
2017-Nov-11 12:30N 34°43' W 076°41'0 0.0
2017-Nov-11 12:00N 34°43' W 076°41'0 0.0
2017-Nov-11 11:30N 34°43' W 076°41'0 0.0
2017-Nov-11 11:00N 34°43' W 076°41'0 0.0
2017-Nov-11 10:27N 34°43' W 076°41'0 0.0
2017-Nov-11 10:00N 34°43' W 076°41'0 0.0
2017-Nov-11 09:30N 34°43' W 076°41'0 0.0
2017-Nov-11 09:00N 34°43' W 076°41'0 0.0
2017-Nov-11 08:30N 34°43' W 076°41'0 0.0
2017-Nov-11 08:00N 34°43' W 076°41'0 0.0
2017-Nov-11 07:30N 34°43' W 076°41'0 0.0
2017-Nov-11 07:00N 34°43' W 076°41'0 0.0
2017-Nov-11 06:27N 34°43' W 076°41'0 0.0
2017-Nov-11 06:00N 34°43' W 076°41'0 0.0
2017-Nov-11 05:30N 34°43' W 076°41'0 0.0
2017-Nov-11 05:00N 34°43' W 076°41'0 0.0
2017-Nov-11 04:30N 34°43' W 076°41'0 0.0
2017-Nov-11 04:00N 34°43' W 076°41'0 0.0
2017-Nov-11 03:30N 34°43' W 076°41'0 0.0
2017-Nov-11 03:00N 34°43' W 076°41'0 0.0
2017-Nov-11 02:30N 34°43' W 076°41'0 0.0
2017-Nov-11 02:00N 34°43' W 076°41'0 0.0
2017-Nov-11 01:30N 34°43' W 076°41'0 0.0
2017-Nov-11 01:00N 34°43' W 076°41'0 0.0
2017-Nov-11 00:30N 34°43' W 076°41'0 0.0
2017-Nov-11 00:00N 34°43' W 076°41'0 0.0
2017-Nov-10 23:30N 34°43' W 076°41'0 0.0
2017-Nov-10 23:00N 34°43' W 076°41'2 3.8
2017-Nov-10 22:30N 34°42' W 076°40'1 1.1
2017-Nov-10 22:00N 34°42' W 076°41'1 2.5
2017-Nov-10 21:29N 34°43' W 076°41'0 0.0
2017-Nov-10 20:59N 34°43' W 076°41'0 0.0
2017-Nov-10 20:29N 34°43' W 076°41'0 0.0
2017-Nov-10 19:59N 34°43' W 076°41'0 0.0
2017-Nov-10 19:29N 34°43' W 076°41'0 0.0
2017-Nov-10 18:59N 34°43' W 076°41'0 0.0
2017-Nov-10 18:29N 34°43' W 076°41'0 0.0
2017-Nov-10 17:59N 34°43' W 076°41'0 0.0
2017-Nov-10 17:29N 34°43' W 076°41'0 0.0
2017-Nov-10 16:59N 34°43' W 076°41'0 0.0
2017-Nov-10 16:29N 34°43' W 076°41'0 0.0
2017-Nov-10 15:59N 34°43' W 076°41'0 0.0
2017-Nov-10 15:29N 34°43' W 076°41'0 0.0
2017-Nov-10 14:59N 34°43' W 076°41'0 0.0
2017-Nov-10 14:29N 34°43' W 076°41'1 2.5
2017-Nov-10 14:00N 34°42' W 076°41'0 0.7
2017-Nov-10 13:30N 34°42' W 076°40'2 3.1
2017-Nov-10 12:59N 34°43' W 076°41'0 0.0
2017-Nov-10 12:29N 34°43' W 076°41'0 0.0
2017-Nov-10 11:59N 34°43' W 076°41'0 0.0
2017-Nov-10 11:29N 34°43' W 076°41'0 0.0
2017-Nov-10 10:59N 34°43' W 076°41'0 0.0
2017-Nov-10 10:23N 34°43' W 076°41'0 0.0
2017-Nov-10 09:59N 34°43' W 076°41'0 0.0
2017-Nov-10 09:29N 34°43' W 076°41'0 0.0
2017-Nov-10 08:59N 34°43' W 076°41'0 0.0
2017-Nov-10 08:29N 34°43' W 076°41'0 0.0
2017-Nov-10 07:59N 34°43' W 076°41'0 0.0
2017-Nov-10 07:29N 34°43' W 076°41'0 0.0
2017-Nov-10 06:59N 34°43' W 076°41'0 0.0
2017-Nov-10 06:29N 34°43' W 076°41'0 0.0
2017-Nov-10 05:59N 34°43' W 076°41'0 0.0
2017-Nov-10 05:29N 34°43' W 076°41'0 0.0
2017-Nov-10 04:50N 34°43' W 076°41'0 0.0
2017-Nov-10 04:29N 34°43' W 076°41'0 0.0
2017-Nov-10 03:59N 34°43' W 076°41'0 0.0
2017-Nov-10 03:29N 34°43' W 076°41'0 0.0
2017-Nov-10 02:59N 34°43' W 076°41'0 0.0
2017-Nov-10 02:29N 34°43' W 076°41'0 0.0
2017-Nov-10 01:59N 34°43' W 076°41'0 0.0
2017-Nov-10 01:29N 34°43' W 076°41'0 0.0
2017-Nov-10 00:59N 34°43' W 076°41'  

Dump ship's entire track history